Time;durP1;ratioP1;P1;durP2;ratioP2;P2;SDS_P1;SDS_P2;PMS_P1;PMS_P2;Temp;Humidity;BMP_temperature;BMP_pressure;BME280_temperature;BME280_humidity;BME280_pressure;Samples;Min_cycle;Max_cycle;Signal;HPM_P1;HPM_P2
2021/08/02 00:02:29;;;;;;;4.53;3.00;;;15.30;99.90;;;;;;5060237;28;20668;-86
2021/08/02 00:05:02;;;;;;;2.47;2.27;;;15.20;99.90;;;;;;5059409;28;20679;-86
2021/08/02 00:07:30;;;;;;;3.17;2.60;;;15.20;99.90;;;;;;5057681;28;20611;-87
2021/08/02 00:10:06;;;;;;;2.80;2.47;;;15.20;99.90;;;;;;5060620;28;20622;-88
2021/08/02 00:12:35;;;;;;;3.17;2.87;;;15.20;99.90;;;;;;5058106;28;20621;-87
2021/08/02 00:15:02;;;;;;;6.87;3.23;;;15.10;99.90;;;;;;5058384;28;20644;-88
2021/08/02 00:17:32;;;;;;;2.67;2.30;;;15.10;99.90;;;;;;5056334;28;20649;-88
2021/08/02 00:19:59;;;;;;;3.13;2.80;;;15.10;99.90;;;;;;5060980;28;21159;-86
2021/08/02 00:22:26;;;;;;;3.20;2.90;;;15.10;99.90;;;;;;5059381;28;20602;-87
2021/08/02 00:24:53;;;;;;;5.13;4.33;;;15.00;99.90;;;;;;5060999;28;21020;-87
2021/08/02 00:27:21;;;;;;;5.07;4.57;;;15.10;99.90;;;;;;5061397;28;20635;-87
2021/08/02 00:29:49;;;;;;;4.80;4.50;;;15.10;99.90;;;;;;5052599;28;20653;-87
2021/08/02 00:32:17;;;;;;;4.73;4.30;;;15.20;99.90;;;;;;5050619;28;20618;-87
2021/08/02 00:34:46;;;;;;;4.00;3.60;;;15.20;99.90;;;;;;5050930;28;20599;-87
2021/08/02 00:37:19;;;;;;;3.03;2.73;;;15.20;99.90;;;;;;5051043;28;20765;-87
2021/08/02 00:39:57;;;;;;;3.80;3.30;;;15.20;99.90;;;;;;5051281;28;21280;-87
2021/08/02 00:42:58;;;;;;;2.67;2.47;;;15.20;99.90;;;;;;5050085;28;20617;-87
2021/08/02 00:45:30;;;;;;;3.00;2.50;;;15.20;99.90;;;;;;5029220;28;20757;-86
2021/08/02 00:48:02;;;;;;;3.20;2.90;;;15.20;99.90;;;;;;5051037;28;20625;-87
2021/08/02 00:50:34;;;;;;;3.80;3.43;;;15.20;99.90;;;;;;5050905;28;20973;-87
2021/08/02 00:53:03;;;;;;;2.77;2.57;;;15.20;99.90;;;;;;5050216;28;20614;-87
2021/08/02 00:55:34;;;;;;;2.40;2.20;;;15.30;99.90;;;;;;5050821;28;20614;-88
2021/08/02 00:58:04;;;;;;;4.03;2.60;;;15.30;99.90;;;;;;5050965;28;20618;-87
2021/08/02 01:00:31;;;;;;;4.47;2.70;;;15.20;99.90;;;;;;5046385;28;20720;-87
2021/08/02 01:03:04;;;;;;;3.30;3.00;;;15.10;99.90;;;;;;5050368;28;20714;-87
2021/08/02 01:05:38;;;;;;;3.17;2.87;;;15.00;99.90;;;;;;5050361;28;21190;-87
2021/08/02 01:08:09;;;;;;;4.07;2.80;;;15.10;99.90;;;;;;5050944;28;20746;-87
2021/08/02 01:10:42;;;;;;;3.37;2.80;;;15.00;99.90;;;;;;5051126;28;20729;-87
2021/08/02 01:13:12;;;;;;;4.27;2.70;;;15.10;99.90;;;;;;5050957;28;20617;-86
2021/08/02 01:15:43;;;;;;;2.80;2.60;;;15.10;99.90;;;;;;5047689;28;20666;-87
2021/08/02 01:18:13;;;;;;;3.23;2.93;;;15.00;99.90;;;;;;5050546;28;20618;-87
2021/08/02 01:20:50;;;;;;;2.23;2.13;;;15.00;99.90;;;;;;5044970;28;20646;-86
2021/08/02 01:23:22;;;;;;;2.40;2.20;;;15.00;99.90;;;;;;5043627;28;20676;-87
2021/08/02 01:26:17;;;;;;;3.23;3.03;;;14.90;99.90;;;;;;5047683;28;21279;-87
2021/08/02 01:29:24;;;;;;;5.50;2.63;;;14.90;99.90;;;;;;5035954;28;20629;-86
2021/08/02 01:31:54;;;;;;;4.13;2.47;;;14.90;99.90;;;;;;5050136;28;20707;-86
2021/08/02 01:34:23;;;;;;;3.07;2.87;;;14.90;99.90;;;;;;5050156;28;21026;-86
2021/08/02 01:36:50;;;;;;;2.70;2.50;;;14.90;99.90;;;;;;5050000;28;21002;-87
2021/08/02 01:39:20;;;;;;;2.60;2.40;;;14.90;99.90;;;;;;5050468;28;21185;-87
2021/08/02 01:41:50;;;;;;;2.90;2.70;;;14.80;99.90;;;;;;5049623;28;20619;-87
2021/08/02 01:44:23;;;;;;;2.73;2.50;;;14.80;99.90;;;;;;5048784;28;21175;-87
2021/08/02 01:47:00;;;;;;;2.73;2.17;;;14.90;99.90;;;;;;5047314;28;20614;-87
2021/08/02 01:49:35;;;;;;;2.40;2.20;;;15.00;99.90;;;;;;5050720;28;20668;-87
2021/08/02 01:52:05;;;;;;;3.13;2.67;;;14.90;99.90;;;;;;5050022;28;20624;-87
2021/08/02 01:54:49;;;;;;;4.43;2.60;;;14.90;99.90;;;;;;5051633;28;20602;-87
2021/08/02 01:57:22;;;;;;;3.73;2.77;;;15.00;99.90;;;;;;5054196;28;20637;-87
2021/08/02 01:59:53;;;;;;;5.50;3.07;;;15.00;99.90;;;;;;5053913;28;20980;-87
2021/08/02 02:02:22;;;;;;;2.73;2.53;;;14.90;99.90;;;;;;5052191;28;20744;-87
2021/08/02 02:04:56;;;;;;;4.90;2.63;;;15.00;99.90;;;;;;5053754;28;20618;-87
2021/08/02 02:07:26;;;;;;;3.70;2.80;;;15.00;99.90;;;;;;5054192;28;20632;-87
2021/08/02 02:09:58;;;;;;;3.17;2.43;;;15.00;99.90;;;;;;5054146;28;20679;-87
2021/08/02 02:12:26;;;;;;;3.80;3.50;;;15.00;99.90;;;;;;5053285;28;20621;-88
2021/08/02 02:14:58;;;;;;;4.10;2.93;;;15.00;99.90;;;;;;5051236;28;20633;-88
2021/08/02 02:17:28;;;;;;;3.10;2.90;;;15.10;99.90;;;;;;5051397;28;20749;-89
2021/08/02 02:19:57;;;;;;;2.67;2.47;;;15.10;99.90;;;;;;5053885;28;20730;-88
2021/08/02 02:22:26;;;;;;;4.07;2.90;;;15.10;99.90;;;;;;5053200;28;20617;-89
2021/08/02 02:24:56;;;;;;;3.73;2.70;;;15.10;99.90;;;;;;5053790;28;20965;-88
2021/08/02 02:27:25;;;;;;;5.03;2.40;;;15.20;99.90;;;;;;5053969;28;20652;-88
2021/08/02 02:29:55;;;;;;;2.90;2.70;;;15.00;99.90;;;;;;5052076;28;21242;-88
2021/08/02 02:32:25;;;;;;;2.67;2.47;;;15.10;99.90;;;;;;5049571;28;20622;-87
2021/08/02 02:34:56;;;;;;;7.97;3.67;;;15.10;99.90;;;;;;5053740;28;20610;-88
2021/08/02 02:37:26;;;;;;;2.90;2.67;;;15.20;99.90;;;;;;5053132;28;21218;-87
2021/08/02 02:39:57;;;;;;;2.50;2.30;;;15.20;99.90;;;;;;5053558;28;20610;-88
2021/08/02 02:42:28;;;;;;;2.80;2.60;;;15.10;99.90;;;;;;5052989;28;20626;-88
2021/08/02 02:44:57;;;;;;;3.43;2.53;;;15.10;99.90;;;;;;5052879;28;20649;-88
2021/08/02 02:47:27;;;;;;;5.03;2.93;;;15.10;99.90;;;;;;5058074;28;20729;-88
2021/08/02 02:49:55;;;;;;;4.13;3.13;;;15.00;99.90;;;;;;5053074;28;20610;-88
2021/08/02 02:52:24;;;;;;;2.50;2.30;;;15.00;99.90;;;;;;5052413;28;21010;-88
2021/08/02 02:54:55;;;;;;;2.83;2.63;;;14.90;99.90;;;;;;5053054;28;20610;-88
2021/08/02 02:57:23;;;;;;;4.93;2.70;;;15.00;99.90;;;;;;5053013;28;21000;-88
2021/08/02 02:59:50;;;;;;;2.80;2.60;;;15.00;99.90;;;;;;5047737;28;20642;-89
2021/08/02 03:02:19;;;;;;;3.13;2.83;;;15.00;99.90;;;;;;5052265;28;20638;-87
2021/08/02 03:04:51;;;;;;;3.27;2.90;;;15.00;99.90;;;;;;5053649;28;21491;-88
2021/08/02 03:07:19;;;;;;;3.90;2.60;;;15.00;99.90;;;;;;5052514;28;20638;-88
2021/08/02 03:09:48;;;;;;;3.97;3.10;;;15.00;99.90;;;;;;5052920;28;20617;-88
2021/08/02 03:12:16;;;;;;;2.70;2.50;;;15.00;99.90;;;;;;5052838;28;20610;-87
2021/08/02 03:14:45;;;;;;;3.17;2.93;;;15.00;99.90;;;;;;5052726;28;21189;-88
2021/08/02 03:17:12;;;;;;;3.17;2.73;;;15.10;99.90;;;;;;5052716;28;20658;-89
2021/08/02 03:19:39;;;;;;;3.13;2.70;;;15.10;99.90;;;;;;5052882;28;20617;-89
2021/08/02 03:22:16;;;;;;;3.40;3.10;;;15.10;99.90;;;;;;5051908;28;20622;-88
2021/08/02 03:24:46;;;;;;;2.73;2.53;;;15.10;99.90;;;;;;5047134;28;20715;-88
2021/08/02 03:27:21;;;;;;;8.13;3.40;;;15.00;99.90;;;;;;5051926;28;20622;-88
2021/08/02 03:29:52;;;;;;;2.93;2.40;;;15.00;99.90;;;;;;5052330;28;20665;-88
2021/08/02 03:32:21;;;;;;;3.10;2.77;;;15.10;99.90;;;;;;5050621;28;20626;-88
2021/08/02 03:34:57;;;;;;;5.53;3.00;;;15.00;99.90;;;;;;5040728;28;20791;-88
2021/08/02 03:37:25;;;;;;;5.57;3.33;;;14.90;99.90;;;;;;5052315;28;20637;-87
2021/08/02 03:39:54;;;;;;;2.60;2.40;;;14.80;99.90;;;;;;5046619;28;20646;-88
2021/08/02 03:42:23;;;;;;;2.77;2.57;;;14.70;99.90;;;;;;5051202;28;20602;-89
2021/08/02 03:44:52;;;;;;;3.23;2.90;;;14.70;99.90;;;;;;5052082;28;21022;-88
2021/08/02 03:47:20;;;;;;;2.90;2.70;;;14.80;99.90;;;;;;5051944;28;20697;-88
2021/08/02 03:49:47;;;;;;;4.40;2.77;;;14.70;99.90;;;;;;5052056;28;21205;-88
2021/08/02 03:52:14;;;;;;;3.50;3.20;;;14.80;99.90;;;;;;5051155;28;20614;-87
2021/08/02 03:54:41;;;;;;;6.03;3.07;;;14.70;99.90;;;;;;5046386;28;20715;-88
2021/08/02 03:57:10;;;;;;;3.67;3.30;;;14.70;99.90;;;;;;5051944;28;20638;-88
2021/08/02 03:59:37;;;;;;;2.90;2.70;;;14.80;99.90;;;;;;5051546;28;20646;-88
2021/08/02 04:02:06;;;;;;;5.20;3.47;;;14.80;99.90;;;;;;5051476;28;20614;-88
2021/08/02 04:04:33;;;;;;;3.47;3.17;;;14.90;99.90;;;;;;5051410;28;20668;-88
2021/08/02 04:07:00;;;;;;;2.83;2.63;;;14.90;99.90;;;;;;5051475;28;20667;-88
2021/08/02 04:09:27;;;;;;;5.23;3.07;;;14.90;99.90;;;;;;5046686;28;20622;-88
2021/08/02 04:11:56;;;;;;;3.10;2.80;;;14.90;99.90;;;;;;5051397;28;21190;-88
2021/08/02 04:14:23;;;;;;;3.13;2.50;;;15.00;99.90;;;;;;5051724;28;21035;-88
2021/08/02 04:16:50;;;;;;;3.40;3.10;;;15.10;99.90;;;;;;5050892;28;21126;-87
2021/08/02 04:19:19;;;;;;;4.07;2.60;;;15.10;99.90;;;;;;5050600;28;20644;-88
2021/08/02 04:21:46;;;;;;;5.20;2.87;;;15.10;99.90;;;;;;5050894;28;21015;-87
2021/08/02 04:24:13;;;;;;;2.30;2.20;;;15.10;99.90;;;;;;5046367;28;20630;-89
2021/08/02 04:26:40;;;;;;;2.47;2.30;;;15.10;99.90;;;;;;5051775;28;20642;-89
2021/08/02 04:29:08;;;;;;;2.90;2.60;;;15.00;99.90;;;;;;5051307;28;20667;-88
2021/08/02 04:31:35;;;;;;;3.37;2.90;;;15.20;99.90;;;;;;5042802;28;20664;-88
2021/08/02 04:34:02;;;;;;;3.63;3.33;;;15.10;99.90;;;;;;5042752;28;20622;-88
2021/08/02 04:36:31;;;;;;;6.17;2.30;;;15.10;99.90;;;;;;5051165;28;21174;-88
2021/08/02 04:38:58;;;;;;;2.80;2.60;;;15.00;99.90;;;;;;5050808;28;20653;-87
2021/08/02 04:41:25;;;;;;;2.40;2.20;;;15.00;99.90;;;;;;5048504;28;20981;-88
2021/08/02 04:43:52;;;;;;;2.60;2.40;;;15.00;99.90;;;;;;5051152;28;20629;-89
2021/08/02 04:46:19;;;;;;;6.63;2.53;;;15.00;99.90;;;;;;5051098;28;20980;-88
2021/08/02 04:48:46;;;;;;;3.30;2.93;;;15.00;99.90;;;;;;5050958;28;21005;-89
2021/08/02 04:51:16;;;;;;;3.23;2.77;;;15.00;99.90;;;;;;5051371;28;21088;-89
2021/08/02 04:53:44;;;;;;;3.37;3.00;;;15.10;99.90;;;;;;5050874;28;20626;-88
2021/08/02 04:56:14;;;;;;;2.77;2.57;;;15.10;99.90;;;;;;5051198;28;20614;-88
2021/08/02 04:58:41;;;;;;;3.90;3.50;;;15.10;99.90;;;;;;5051589;28;20642;-88
2021/08/02 05:01:08;;;;;;;3.30;2.03;;;15.20;99.90;;;;;;5050525;28;20614;-88
2021/08/02 05:03:37;;;;;;;4.90;3.00;;;15.10;99.90;;;;;;5050657;28;20610;-89
2021/08/02 05:06:04;;;;;;;4.67;3.17;;;15.10;99.90;;;;;;5050919;28;20764;-88
2021/08/02 05:08:31;;;;;;;2.90;2.70;;;15.20;99.90;;;;;;5050609;28;20614;-89
2021/08/02 05:10:59;;;;;;;3.40;3.10;;;15.10;99.90;;;;;;5050165;28;20614;-87
2021/08/02 05:13:26;;;;;;;2.50;2.17;;;15.10;99.90;;;;;;5049907;28;20680;-89
2021/08/02 05:15:53;;;;;;;3.83;3.53;;;15.20;99.90;;;;;;5050273;28;20668;-88
2021/08/02 05:18:20;;;;;;;2.80;2.40;;;15.30;99.90;;;;;;5050310;28;21206;-87
2021/08/02 05:20:47;;;;;;;2.83;2.03;;;15.30;99.90;;;;;;5045044;28;20668;-88
2021/08/02 05:23:14;;;;;;;3.10;2.73;;;15.30;99.90;;;;;;5036504;28;20983;-87
2021/08/02 05:25:41;;;;;;;2.67;2.47;;;15.40;99.90;;;;;;5050278;28;21216;-88
2021/08/02 05:28:09;;;;;;;3.20;2.60;;;15.40;99.90;;;;;;5050258;28;20610;-88
2021/08/02 05:30:36;;;;;;;5.50;2.93;;;15.40;99.90;;;;;;5054470;28;20618;-89
2021/08/02 05:33:03;;;;;;;5.03;3.50;;;15.40;99.90;;;;;;5033689;28;20629;-87
2021/08/02 05:35:30;;;;;;;2.77;2.40;;;15.40;99.90;;;;;;5053011;28;20626;-89
2021/08/02 05:37:57;;;;;;;4.30;3.90;;;15.30;99.90;;;;;;5053809;28;20645;-89
2021/08/02 05:40:25;;;;;;;4.80;4.20;;;15.40;99.90;;;;;;5064955;28;20617;-89
2021/08/02 05:42:52;;;;;;;4.50;4.10;;;15.40;99.90;;;;;;5065822;28;20737;-88
2021/08/02 05:45:21;;;;;;;5.13;4.73;;;15.30;99.90;;;;;;5054217;28;20610;-89
2021/08/02 05:47:49;;;;;;;4.60;4.30;;;15.30;99.90;;;;;;5055366;28;20610;-89
2021/08/02 05:50:16;;;;;;;4.93;4.37;;;15.30;99.90;;;;;;5054680;28;20617;-89
2021/08/02 05:52:43;;;;;;;4.20;3.90;;;15.40;99.90;;;;;;5053467;28;20618;-89
2021/08/02 05:55:12;;;;;;;3.40;3.10;;;15.40;99.90;;;;;;5061192;28;20730;-89
2021/08/02 05:57:40;;;;;;;4.87;3.10;;;15.40;99.90;;;;;;5056424;28;20657;-89
2021/08/02 06:00:09;;;;;;;3.80;2.97;;;15.40;99.90;;;;;;5056011;28;20657;-90
2021/08/02 06:02:37;;;;;;;7.67;2.73;;;15.50;99.90;;;;;;5055364;28;20622;-90
2021/08/02 06:05:05;;;;;;;2.70;2.50;;;15.50;99.90;;;;;;5054808;28;20673;-90
2021/08/02 06:07:33;;;;;;;2.60;2.40;;;15.50;99.90;;;;;;5053347;28;20630;-90
2021/08/02 06:10:00;;;;;;;2.60;2.40;;;15.60;99.90;;;;;;5056605;28;20644;-88
2021/08/02 06:12:28;;;;;;;2.60;2.40;;;15.60;99.90;;;;;;5052971;28;20718;-89
2021/08/02 06:15:03;;;;;;;3.43;3.13;;;15.60;99.90;;;;;;5053770;28;20618;-89
2021/08/02 06:17:47;;;;;;;2.97;2.50;;;15.60;99.90;;;;;;5050438;28;21309;-89
2021/08/02 06:20:14;;;;;;;3.53;3.23;;;15.60;99.90;;;;;;5053738;28;21496;-89
2021/08/02 06:22:43;;;;;;;3.57;3.00;;;15.60;99.90;;;;;;5050732;28;20721;-88
2021/08/02 06:25:10;;;;;;;3.40;2.93;;;15.50;99.90;;;;;;5053407;28;20626;-89
2021/08/02 06:27:38;;;;;;;3.57;3.27;;;15.60;99.90;;;;;;5053553;28;20611;-88
2021/08/02 06:30:06;;;;;;;4.60;2.70;;;15.70;99.90;;;;;;5054047;28;20646;-89
2021/08/02 06:32:37;;;;;;;6.83;2.50;;;15.70;99.90;;;;;;5052446;28;20643;-89
2021/08/02 06:35:08;;;;;;;3.20;2.80;;;15.80;99.90;;;;;;5055589;28;21257;-89
2021/08/02 06:37:35;;;;;;;3.10;2.23;;;15.80;99.90;;;;;;5053706;28;20746;-89
2021/08/02 06:40:02;;;;;;;3.63;2.67;;;15.80;99.90;;;;;;5064356;28;20642;-89
2021/08/02 06:42:29;;;;;;;2.63;2.33;;;15.90;99.90;;;;;;5057625;28;21199;-90
2021/08/02 06:44:56;;;;;;;7.00;2.50;;;15.90;99.90;;;;;;5054434;28;20973;-87
2021/08/02 06:47:23;;;;;;;4.83;2.70;;;16.10;99.90;;;;;;5053427;28;20625;-87
2021/08/02 06:49:50;;;;;;;4.27;2.67;;;16.20;99.90;;;;;;5053643;28;20614;-87
2021/08/02 06:52:18;;;;;;;3.10;2.00;;;16.20;99.90;;;;;;5053730;28;20617;-87
2021/08/02 06:54:45;;;;;;;2.63;2.43;;;16.30;99.90;;;;;;5053914;28;21017;-86
2021/08/02 06:57:12;;;;;;;4.03;2.40;;;16.30;99.90;;;;;;5053823;28;20614;-88
2021/08/02 06:59:39;;;;;;;3.93;3.07;;;16.30;99.90;;;;;;5052998;28;20667;-87
2021/08/02 07:02:06;;;;;;;4.90;2.80;;;16.40;99.90;;;;;;5054275;28;20717;-87
2021/08/02 07:04:33;;;;;;;2.73;2.37;;;16.40;99.90;;;;;;5051354;28;20631;-87
2021/08/02 07:07:00;;;;;;;3.17;2.47;;;16.60;99.90;;;;;;5066146;28;20627;-87
2021/08/02 07:09:29;;;;;;;2.80;2.07;;;16.60;99.90;;;;;;5073595;28;20625;-87
2021/08/02 07:11:57;;;;;;;2.67;2.47;;;16.70;99.90;;;;;;5039816;28;20634;-86
2021/08/02 07:14:24;;;;;;;3.23;2.93;;;16.70;99.90;;;;;;5055187;28;20621;-86
2021/08/02 07:16:51;;;;;;;2.70;2.20;;;16.70;99.90;;;;;;5056583;28;20618;-87
2021/08/02 07:19:18;;;;;;;2.50;2.30;;;16.70;99.90;;;;;;5058100;28;20665;-87
2021/08/02 07:21:50;;;;;;;2.70;2.50;;;16.80;99.90;;;;;;5057262;28;20633;-88
2021/08/02 07:24:17;;;;;;;3.23;2.70;;;16.90;99.90;;;;;;5056238;28;20648;-88
2021/08/02 07:26:45;;;;;;;4.00;3.60;;;17.00;99.90;;;;;;5056482;28;21164;-88
2021/08/02 07:29:12;;;;;;;3.70;2.57;;;17.00;99.90;;;;;;5053293;28;20630;-87
2021/08/02 07:31:39;;;;;;;2.80;2.60;;;17.10;99.90;;;;;;5056862;28;21192;-87
2021/08/02 07:34:08;;;;;;;2.50;2.30;;;17.20;99.90;;;;;;5055876;28;20609;-87
2021/08/02 07:36:35;;;;;;;2.57;2.37;;;17.20;99.90;;;;;;5049846;28;20635;-88
2021/08/02 07:39:02;;;;;;;2.60;2.40;;;17.30;99.90;;;;;;5051666;28;20641;-87
2021/08/02 07:41:30;;;;;;;1.90;1.80;;;17.40;99.90;;;;;;5050067;28;20637;-87
2021/08/02 07:44:00;;;;;;;2.93;2.63;;;17.40;99.80;;;;;;5049662;28;20700;-88
2021/08/02 07:46:27;;;;;;;2.77;2.57;;;17.50;99.90;;;;;;5051579;28;20651;-87
2021/08/02 07:48:55;;;;;;;2.97;2.20;;;17.60;99.10;;;;;;5051630;28;20613;-86
2021/08/02 07:51:22;;;;;;;2.43;2.23;;;17.60;99.20;;;;;;5051198;28;20956;-87
2021/08/02 07:53:54;;;;;;;2.20;2.00;;;17.70;99.90;;;;;;5047119;28;20682;-88
2021/08/02 07:56:23;;;;;;;2.50;2.30;;;17.60;99.50;;;;;;5052115;28;20664;-89
2021/08/02 07:59:10;;;;;;;3.70;2.30;;;17.70;99.10;;;;;;5052917;28;20652;-90
2021/08/02 08:01:39;;;;;;;4.37;2.50;;;17.90;98.60;;;;;;5037152;28;21016;-89
2021/08/02 08:04:06;;;;;;;2.00;1.90;;;18.00;98.20;;;;;;5054244;28;20640;-88
2021/08/02 08:06:36;;;;;;;3.13;2.20;;;18.10;98.20;;;;;;5057089;28;21210;-87
2021/08/02 08:09:08;;;;;;;3.90;2.23;;;18.10;97.80;;;;;;5058873;28;20664;-86
2021/08/02 08:11:35;;;;;;;1.97;1.70;;;18.20;96.50;;;;;;5059001;28;20653;-87
2021/08/02 08:14:08;;;;;;;1.83;1.73;;;18.10;97.60;;;;;;5058306;28;20721;-87
2021/08/02 08:16:46;;;;;;;3.10;2.40;;;18.10;97.90;;;;;;5056946;28;21140;-87
2021/08/02 08:19:32;;;;;;;2.17;1.80;;;18.30;97.70;;;;;;5057257;28;20669;-87
2021/08/02 08:21:59;;;;;;;4.60;2.00;;;18.30;98.00;;;;;;5056626;28;20625;-87
2021/08/02 08:24:32;;;;;;;3.37;2.60;;;18.40;98.10;;;;;;5057242;28;20617;-88
2021/08/02 08:27:03;;;;;;;2.43;1.70;;;18.60;97.20;;;;;;5040616;28;20626;-88
2021/08/02 08:32:13;;;;;;;2.20;1.77;;;19.00;96.00;;;;;;5036578;28;20623;-88
2021/08/02 08:34:46;;;;;;;2.20;2.00;;;19.10;95.90;;;;;;5039911;28;20637;-88
2021/08/02 08:37:14;;;;;;;2.20;1.70;;;19.00;96.70;;;;;;5055618;28;20618;-88
2021/08/02 08:40:24;;;;;;;;;;;;;;;;;;;;;
2021/08/02 08:43:08;;;;;;;2.43;2.27;;;19.20;95.70;;;;;;5050201;28;20610;-87
2021/08/02 08:45:35;;;;;;;1.90;1.80;;;19.40;95.40;;;;;;5054141;28;20614;-88
2021/08/02 08:48:04;;;;;;;2.07;1.87;;;19.20;95.50;;;;;;5054085;28;21189;-87
2021/08/02 08:50:31;;;;;;;2.63;2.20;;;19.30;95.30;;;;;;5054087;28;20997;-87
2021/08/02 08:52:59;;;;;;;1.90;1.80;;;19.30;94.30;;;;;;5055446;28;20614;-87
2021/08/02 08:55:54;;;;;;;1.83;1.60;;;19.30;95.40;;;;;;5054241;28;21262;-88
2021/08/02 08:58:21;;;;;;;2.07;1.87;;;19.10;95.40;;;;;;5053264;28;20654;-87
2021/08/02 09:01:09;;;;;;;2.07;1.80;;;19.20;93.70;;;;;;5053198;28;20622;-88
2021/08/02 09:04:18;;;;;;;1.80;1.70;;;19.30;94.50;;;;;;5037249;28;20650;-91
2021/08/02 09:06:50;;;;;;;5.60;2.40;;;19.60;93.40;;;;;;4918458;28;20667;-87
2021/08/02 09:09:29;;;;;;;2.23;2.03;;;19.80;93.20;;;;;;5036883;28;20696;-87
2021/08/02 09:19:18;;;;;;;2.10;2.00;;;20.00;93.10;;;;;;4962241;28;20659;-90
2021/08/02 09:21:52;;;;;;;2.57;1.87;;;19.90;93.30;;;;;;5038798;28;20622;-87
2021/08/02 09:24:30;;;;;;;2.43;2.10;;;19.80;91.90;;;;;;5053999;28;20630;-87
2021/08/02 09:26:59;;;;;;;3.37;2.33;;;19.90;92.10;;;;;;5038058;28;20657;-88
2021/08/02 09:29:30;;;;;;;5.30;2.67;;;19.80;91.90;;;;;;5053185;28;20607;-89
2021/08/02 09:31:57;;;;;;;2.20;2.10;;;19.90;92.10;;;;;;5073549;28;20668;-88
2021/08/02 09:34:26;;;;;;;2.50;1.70;;;20.00;92.20;;;;;;5056269;28;20622;-88
2021/08/02 09:36:57;;;;;;;2.40;2.20;;;20.10;92.60;;;;;;5055065;28;20650;-89
2021/08/02 09:39:34;;;;;;;3.10;2.00;;;20.60;91.70;;;;;;5054732;28;20684;-87
2021/08/02 09:42:08;;;;;;;2.47;2.27;;;20.70;91.90;;;;;;5054540;28;20615;-88
2021/08/02 09:44:40;;;;;;;2.43;2.23;;;20.60;90.90;;;;;;5055493;28;20724;-88
2021/08/02 09:47:07;;;;;;;2.17;2.07;;;20.90;90.40;;;;;;5054597;28;20624;-86
2021/08/02 09:49:45;;;;;;;5.53;2.13;;;21.30;92.00;;;;;;5055015;28;20617;-88
2021/08/02 09:52:19;;;;;;;1.70;1.60;;;21.20;91.00;;;;;;5054348;28;20626;-88
2021/08/02 09:54:48;;;;;;;2.70;2.50;;;21.00;90.90;;;;;;5054149;28;20615;-87
2021/08/02 09:57:15;;;;;;;1.73;1.63;;;20.60;90.60;;;;;;5054687;28;20627;-88
2021/08/02 09:59:43;;;;;;;2.20;2.00;;;20.80;91.30;;;;;;5054997;28;21026;-89
2021/08/02 10:02:11;;;;;;;1.80;1.70;;;20.90;90.80;;;;;;5054696;28;20596;-88
2021/08/02 10:04:38;;;;;;;4.40;2.60;;;21.40;91.40;;;;;;5054239;28;20609;-88
2021/08/02 10:07:07;;;;;;;2.10;1.93;;;21.60;87.70;;;;;;5053293;28;20639;-87
2021/08/02 10:09:35;;;;;;;2.30;1.83;;;21.30;87.00;;;;;;5054375;28;20694;-87
2021/08/02 10:12:04;;;;;;;2.00;1.80;;;20.90;86.00;;;;;;5053612;28;21281;-87
2021/08/02 10:14:32;;;;;;;2.23;1.97;;;21.00;87.50;;;;;;5054527;28;20616;-86
2021/08/02 10:17:02;;;;;;;1.90;1.80;;;21.00;88.80;;;;;;5055355;28;20594;-86
2021/08/02 10:19:37;;;;;;;2.50;1.83;;;20.90;88.90;;;;;;5056368;28;20629;-89
2021/08/02 10:22:05;;;;;;;1.97;1.80;;;20.90;89.10;;;;;;5056154;28;20981;-86
2021/08/02 10:24:45;;;;;;;1.47;1.37;;;21.00;89.30;;;;;;5056086;28;20630;-90
2021/08/02 10:27:24;;;;;;;1.57;1.47;;;21.40;87.10;;;;;;5056759;28;20738;-91
2021/08/02 10:29:53;;;;;;;3.33;2.03;;;21.80;86.00;;;;;;5055799;28;20616;-90
2021/08/02 10:32:25;;;;;;;2.13;1.80;;;22.30;82.90;;;;;;5054343;28;20637;-88
2021/08/02 10:34:52;;;;;;;3.17;1.70;;;22.10;84.10;;;;;;5056963;28;20646;-89
2021/08/02 10:37:32;;;;;;;1.60;1.50;;;22.30;84.90;;;;;;5056525;28;21250;-89
2021/08/02 10:40:05;;;;;;;1.53;1.43;;;22.60;84.40;;;;;;5056065;28;20983;-86
2021/08/02 10:42:44;;;;;;;2.40;2.00;;;22.60;82.10;;;;;;5056705;28;20625;-88
2021/08/02 10:45:11;;;;;;;2.20;1.50;;;22.70;79.50;;;;;;5040460;28;20624;-89
2021/08/02 10:47:52;;;;;;;1.90;1.70;;;22.70;79.60;;;;;;5056235;28;20734;-90
2021/08/02 10:50:34;;;;;;;2.30;1.70;;;23.00;84.80;;;;;;5056414;28;20728;-89
2021/08/02 10:53:23;;;;;;;1.83;1.70;;;23.40;82.00;;;;;;5041703;28;20620;-91
2021/08/02 10:56:08;;;;;;;2.77;1.60;;;23.20;82.70;;;;;;5057549;28;21070;-92
2021/08/02 10:58:39;;;;;;;1.37;1.27;;;23.60;81.20;;;;;;5056678;28;20652;-87
2021/08/02 11:01:11;;;;;;;1.60;1.50;;;23.30;75.40;;;;;;5057239;28;20667;-87
2021/08/02 11:03:40;;;;;;;1.60;1.50;;;23.40;78.70;;;;;;5056634;28;21038;-88
2021/08/02 11:06:09;;;;;;;1.73;1.33;;;23.10;75.40;;;;;;5056373;28;20617;-87
2021/08/02 11:08:44;;;;;;;1.30;1.20;;;22.10;77.50;;;;;;5057164;28;20980;-87
2021/08/02 11:11:12;;;;;;;7.40;2.70;;;21.20;81.10;;;;;;5055511;28;20614;-85
2021/08/02 11:13:40;;;;;;;6.80;2.50;;;20.50;90.30;;;;;;5056946;28;20646;-87
2021/08/02 11:16:10;;;;;;;2.67;1.80;;;19.70;95.30;;;;;;5056945;28;20725;-88
2021/08/02 11:18:37;;;;;;;1.80;1.60;;;18.80;95.10;;;;;;5052747;28;21148;-86
2021/08/02 11:21:04;;;;;;;1.90;1.50;;;18.40;97.10;;;;;;5056057;28;20658;-86
2021/08/02 11:23:32;;;;;;;1.17;1.13;;;18.40;96.30;;;;;;5056355;28;20614;-86
2021/08/02 11:26:10;;;;;;;0.87;0.87;;;18.20;98.40;;;;;;5055539;28;20617;-86
2021/08/02 11:28:46;;;;;;;1.30;1.20;;;18.30;99.80;;;;;;5055502;28;20663;-86
2021/08/02 11:31:14;;;;;;;1.20;1.10;;;18.60;96.80;;;;;;5056051;28;21163;-85
2021/08/02 11:33:44;;;;;;;1.13;1.03;;;18.60;99.50;;;;;;5052000;28;20615;-86
2021/08/02 11:36:16;;;;;;;1.57;1.47;;;18.70;99.90;;;;;;5053864;28;20642;-86
2021/08/02 11:38:43;;;;;;;2.80;1.50;;;19.50;99.90;;;;;;5053681;28;20699;-86
2021/08/02 11:41:10;;;;;;;2.00;1.70;;;19.90;98.80;;;;;;5056043;28;20665;-87
2021/08/02 11:43:46;;;;;;;6.13;1.90;;;20.80;99.10;;;;;;5056556;28;20590;-86
2021/08/02 11:46:14;;;;;;;1.40;1.30;;;21.40;92.60;;;;;;5056393;28;20629;-85
2021/08/02 11:48:43;;;;;;;1.83;1.70;;;21.80;93.50;;;;;;5056141;28;20620;-87
2021/08/02 11:51:12;;;;;;;1.50;1.40;;;21.90;92.90;;;;;;5055633;28;21058;-85
2021/08/02 11:53:40;;;;;;;1.87;1.57;;;22.10;95.20;;;;;;5055386;28;20685;-86
2021/08/02 11:56:08;;;;;;;1.40;1.30;;;22.90;94.90;;;;;;5054721;28;20613;-86
2021/08/02 11:58:39;;;;;;;1.60;1.50;;;22.80;94.70;;;;;;5054678;28;20618;-86
2021/08/02 12:01:08;;;;;;;1.50;1.40;;;21.80;93.90;;;;;;5055038;28;20649;-85
2021/08/02 12:03:35;;;;;;;1.57;1.47;;;21.30;93.70;;;;;;5056417;28;21162;-86
2021/08/02 12:06:03;;;;;;;1.70;1.10;;;20.90;94.90;;;;;;5065150;28;20637;-87
2021/08/02 12:08:30;;;;;;;1.80;1.70;;;20.90;95.00;;;;;;5055383;28;20710;-86
2021/08/02 12:10:59;;;;;;;2.17;1.53;;;20.60;94.70;;;;;;5055011;28;20681;-86
2021/08/02 12:13:38;;;;;;;2.50;2.30;;;20.10;95.30;;;;;;5055102;28;20607;-84
2021/08/02 12:16:08;;;;;;;2.40;2.10;;;19.50;97.90;;;;;;5055846;28;21166;-87
2021/08/02 12:18:35;;;;;;;2.37;2.17;;;19.00;99.90;;;;;;5059848;28;21187;-89
2021/08/02 12:21:22;;;;;;;3.37;1.87;;;18.70;96.90;;;;;;5057453;28;20672;-90
2021/08/02 12:23:50;;;;;;;1.40;1.30;;;18.80;98.80;;;;;;5056631;28;21223;-89
2021/08/02 12:26:21;;;;;;;1.60;1.17;;;18.70;98.80;;;;;;5055567;28;20652;-89
2021/08/02 12:28:49;;;;;;;2.90;1.87;;;18.70;99.90;;;;;;5055267;28;20632;-89
2021/08/02 12:31:21;;;;;;;1.10;1.10;;;19.50;99.90;;;;;;5056234;28;20629;-88
2021/08/02 12:33:50;;;;;;;1.40;1.20;;;20.40;97.50;;;;;;5056369;28;20628;-88
2021/08/02 12:36:18;;;;;;;0.87;0.87;;;21.00;96.70;;;;;;5055230;28;20624;-87
2021/08/02 12:38:46;;;;;;;1.43;1.20;;;21.60;97.70;;;;;;5055122;28;20628;-88
2021/08/02 12:41:14;;;;;;;0.80;0.73;;;23.50;95.90;;;;;;5054796;28;21250;-88
2021/08/02 12:43:42;;;;;;;1.00;0.97;;;24.60;90.90;;;;;;5054485;28;20660;-88
2021/08/02 12:46:10;;;;;;;2.63;1.00;;;25.90;88.50;;;;;;5059465;28;20663;-88
2021/08/02 12:48:38;;;;;;;1.13;0.90;;;27.00;85.90;;;;;;5061770;28;20633;-89
2021/08/02 12:51:08;;;;;;;1.20;1.10;;;27.70;88.00;;;;;;5054849;28;20606;-89
2021/08/02 12:53:35;;;;;;;1.47;1.00;;;27.80;76.60;;;;;;5054723;28;20624;-88
2021/08/02 12:56:02;;;;;;;0.97;0.97;;;26.90;79.00;;;;;;5054139;28;21174;-86
2021/08/02 12:58:29;;;;;;;1.33;1.23;;;25.70;83.70;;;;;;5055383;28;21059;-86
2021/08/02 13:00:56;;;;;;;1.60;1.50;;;24.20;86.00;;;;;;5054723;28;20661;-87
2021/08/02 13:03:23;;;;;;;1.70;1.60;;;24.20;91.10;;;;;;5054430;28;20706;-86
2021/08/02 13:05:51;;;;;;;2.30;1.30;;;24.20;86.50;;;;;;5053837;28;20706;-86
2021/08/02 13:08:19;;;;;;;1.90;1.70;;;23.30;90.80;;;;;;5052981;28;20610;-86
2021/08/02 13:10:46;;;;;;;2.23;2.03;;;22.40;90.50;;;;;;5053280;28;20721;-85
2021/08/02 13:13:13;;;;;;;2.00;1.90;;;21.80;91.90;;;;;;5053633;28;20614;-86
2021/08/02 13:15:40;;;;;;;1.87;1.77;;;21.00;92.70;;;;;;5054388;28;20617;-84